Ana Sayfa
METAR-TAF:

METAR-TAF

Havaalanları :

Senendec Havaalanı

Senendec, İran

Enlem: 35-20N, Boylam: 047-00E, yükseklik: 1373 m

Güncel hava durumu gözlemi

Rapor saat 10:00 UTC de 1 saat ve 1 dakika önce yapıldı.
Rüzgar güneydan 2 kt
Sıcaklık 6°C
Nem 61%
Basınç 1019 hPa
Görüş mesafesi 10 km veya daha fazla
4000 ft yükseklikte az bulutlu
10000 ft yükseklikte parçalı çok bulutlu

METAR: OICS 121000Z 17002KT 9999 FEW040 BKN100 06/M01 Q1018 A3008

Saat: 14:31 (11:01 UTC)


TAF: eksik

4.000'den fazla havaalanı için hava durumu gözlemleri ve tahminleri (METAR ve TAF raporları).

Kullanılabilir istasyonlar harita üzerinde sarı ve kırmızı noktalarla gösterilir.

İstasyonun adını görmek için fareyi noktanın üzerinde gezdirin.

Sonrasında hava gözlem ve tahminlerini görmek için tıklayın.

Haritayı değiştirmek için: yaklaştırmak için siyah artı işaretli yeşil düğmeye ve uzaklaştırmak için de eksi işaretli düğmeye hızla tıklayın; bitişik haritalar için yeşil okları kullanın.


METAR-TAF: